Airfield :
LOGIN :

Register | Disclaimer

   EN    FR    IT 

 










Legend :    VFR   Marginal VFR   IFR   Intensive IFR   Very Intensive IFR
Visi :
Ceiling :
>= 8 km
>= 3000ft
5 to 8 km
1000 to 3000 ft
1500m to 5 km
500 to 1000 ft
800 to 1500m
200 to 500 ft
< 800m
< 200 ft
Symbols :   Thunderstorms  Fog  Heavy snow  Heavy precipitations  Wind > 20 kt
SIGMETs :     Misc.  Thunderstorms  Icing  Turbulence  Mountain Waves  Volcanic Ashes






- Airport Elevation : 218 ft
- IATA code : LBG


LFPB - Paris / Le Bourget

CURRENT METAR :
  • 170030Z AUTO 20006KT 9999 BKN011 OVC100 16/15 Q1009 TEMPO 4000 -RADZ BKN007

EXPIRED METARs :
  • 170000Z AUTO 19003KT 160V220 9999 BKN012 BKN022 BKN037 16/15 Q1009 TEMPO 4000 -RADZ BKN007
  • 162330Z AUTO 17006KT 140V200 9999 SCT013/// BKN021/// BKN045/// ///TCU 16/15 Q1009 TEMPO 4000 -RADZ BKN005
  • 162300Z AUTO 17004KT 9999 FEW019/// BKN026/// BKN038/// //////TCU 16/15 Q1009 TEMPO 4000 -RADZ BKN005
  • 162230Z AUTO 17004KT 9999 BKN027 BKN043 OVC062 16/15 Q1009 TEMPO 4000 -RADZ SCT030TCU
  • 162200Z AUTO 17004KT 9999 FEW017 BKN062 16/14 Q1009 TEMPO 4000 -SHRA SCT030TCU
  • 162130Z AUTO VRB03KT CAVOK 16/13 Q1009 TEMPO 4000 -SHRA SCT030TCU
  • 162100Z AUTO 22003KT 9999 SCT049 OVC082 16/14 Q1009 TEMPO 4000 -SHRA SCT030TCU
  • 162030Z AUTO VRB03KT CAVOK 17/14 Q1009 TEMPO 4000 -SHRA SCT030TCU
  • 162000Z AUTO 20004KT 9999 FEW021 BKN074 17/13 Q1008 TEMPO 4000 -SHRA SCT030TCU

TAF TAF LFPB
Valid from the 17 at 00:00 until the 18 at 00:00 UTC


162300Z 1700/1724 19005KT 9999 BKN025
TEMPO 1700/1708 BKN014
PROB30
TEMPO 1700/1706 4000 -RADZ BKN007
TEMPO 1712/1721 4000 -SHRA SCT020TCU
PROB30
TEMPO 1715/1718 4000 TSRA SCT020CB
BECMG 1718/1720 15005KT SCT040 BKN050
ATIS : +33 1 48 62 43 92



MET'MAP, your aeronautical weather chart ! - Copyright ORBIFLY December 2007 - Disclaimer

ORBIFLY MET'MAP TEAM :

Programming & Development : Alexandra Zaïnal
Original concept : Baudouin d'Aumeries
Technical & hardware support : Manuel Goepfert
Assistance : Marc-Olivier Méhu




SOURCES & CREDITS :

   NOAA